sensor_id;sensor_type;location;lat;lon;timestamp;pressure;altitude;pressure_sealevel;temperature;humidity
49065;BME280;34877;27.062;-82.386;2023-01-29T00:03:02;102454.60;;;13.19;89.39
49065;BME280;34877;27.062;-82.386;2023-01-29T00:13:07;102467.23;;;13.47;90.28
49065;BME280;34877;27.062;-82.386;2023-01-29T00:23:11;102467.81;;;13.25;90.41
49065;BME280;34877;27.062;-82.386;2023-01-29T00:33:16;102482.36;;;13.02;90.74
49065;BME280;34877;27.062;-82.386;2023-01-29T00:43:22;102485.73;;;13.01;91.56
49065;BME280;34877;27.062;-82.386;2023-01-29T00:53:26;102499.48;;;13.01;91.67
49065;BME280;34877;27.062;-82.386;2023-01-29T01:03:31;102513.02;;;13.00;92.13
49065;BME280;34877;27.062;-82.386;2023-01-29T01:13:36;102525.25;;;13.44;92.28
49065;BME280;34877;27.062;-82.386;2023-01-29T01:23:42;102529.19;;;13.46;92.59
49065;BME280;34877;27.062;-82.386;2023-01-29T01:33:46;102523.32;;;12.98;92.84
49065;BME280;34877;27.062;-82.386;2023-01-29T01:43:54;102525.15;;;13.17;93.00
49065;BME280;34877;27.062;-82.386;2023-01-29T01:53:59;102525.77;;;12.94;93.03
49065;BME280;34877;27.062;-82.386;2023-01-29T02:04:09;102512.10;;;13.35;93.09
49065;BME280;34877;27.062;-82.386;2023-01-29T02:14:12;102510.20;;;12.89;93.08
49065;BME280;34877;27.062;-82.386;2023-01-29T02:24:44;102489.73;;;13.33;93.02
49065;BME280;34877;27.062;-82.386;2023-01-29T02:35:02;102486.74;;;13.34;92.74
49065;BME280;34877;27.062;-82.386;2023-01-29T02:45:17;102508.74;;;13.28;92.85
49065;BME280;34877;27.062;-82.386;2023-01-29T02:55:27;102519.83;;;12.73;93.95
49065;BME280;34877;27.062;-82.386;2023-01-29T03:05:38;102520.72;;;12.67;94.46
49065;BME280;34877;27.062;-82.386;2023-01-29T03:15:45;102529.12;;;13.32;94.38
49065;BME280;34877;27.062;-82.386;2023-01-29T03:25:53;102536.63;;;13.28;93.99
49065;BME280;34877;27.062;-82.386;2023-01-29T03:36:05;102530.64;;;13.01;94.00
49065;BME280;34877;27.062;-82.386;2023-01-29T03:46:16;102538.07;;;12.56;93.94
49065;BME280;34877;27.062;-82.386;2023-01-29T03:56:35;102550.20;;;12.75;93.77
49065;BME280;34877;27.062;-82.386;2023-01-29T04:06:44;102553.27;;;12.96;93.44
49065;BME280;34877;27.062;-82.386;2023-01-29T04:16:54;102553.97;;;12.90;93.55
49065;BME280;34877;27.062;-82.386;2023-01-29T04:27:13;102535.64;;;12.38;93.62
49065;BME280;34877;27.062;-82.386;2023-01-29T04:37:28;102527.13;;;12.56;93.50
49065;BME280;34877;27.062;-82.386;2023-01-29T04:47:42;102516.42;;;12.55;93.34
49065;BME280;34877;27.062;-82.386;2023-01-29T04:57:58;102500.83;;;12.46;93.83
49065;BME280;34877;27.062;-82.386;2023-01-29T05:08:02;102491.31;;;12.43;93.76
49065;BME280;34877;27.062;-82.386;2023-01-29T05:18:08;102488.16;;;12.42;93.46
49065;BME280;34877;27.062;-82.386;2023-01-29T05:28:12;102473.32;;;12.38;93.35
49065;BME280;34877;27.062;-82.386;2023-01-29T05:38:18;102465.55;;;13.02;93.09
49065;BME280;34877;27.062;-82.386;2023-01-29T05:48:22;102451.32;;;12.06;93.06
49065;BME280;34877;27.062;-82.386;2023-01-29T05:58:26;102454.26;;;11.99;93.35
49065;BME280;34877;27.062;-82.386;2023-01-29T06:08:32;102446.62;;;12.42;93.29
49065;BME280;34877;27.062;-82.386;2023-01-29T06:18:37;102447.00;;;12.41;93.27
49065;BME280;34877;27.062;-82.386;2023-01-29T06:28:41;102438.78;;;12.33;93.47
49065;BME280;34877;27.062;-82.386;2023-01-29T06:38:47;102445.99;;;12.27;93.77
49065;BME280;34877;27.062;-82.386;2023-01-29T06:48:51;102434.79;;;12.69;93.74
49065;BME280;34877;27.062;-82.386;2023-01-29T06:58:57;102418.59;;;12.68;93.49
49065;BME280;34877;27.062;-82.386;2023-01-29T07:09:02;102415.52;;;12.17;93.76
49065;BME280;34877;27.062;-82.386;2023-01-29T07:19:07;102405.82;;;12.36;94.00
49065;BME280;34877;27.062;-82.386;2023-01-29T07:29:11;102401.13;;;11.91;93.88
49065;BME280;34877;27.062;-82.386;2023-01-29T07:39:16;102390.96;;;12.75;93.71
49065;BME280;34877;27.062;-82.386;2023-01-29T07:49:22;102371.39;;;11.63;93.52
49065;BME280;34877;27.062;-82.386;2023-01-29T07:59:27;102369.70;;;12.27;93.48
49065;BME280;34877;27.062;-82.386;2023-01-29T08:09:31;102362.31;;;12.20;93.49
49065;BME280;34877;27.062;-82.386;2023-01-29T08:19:36;102348.93;;;11.89;93.71
49065;BME280;34877;27.062;-82.386;2023-01-29T08:29:42;102349.15;;;11.60;93.93
49065;BME280;34877;27.062;-82.386;2023-01-29T08:39:47;102345.67;;;11.94;94.57
49065;BME280;34877;27.062;-82.386;2023-01-29T08:49:52;102342.01;;;12.40;94.25
49065;BME280;34877;27.062;-82.386;2023-01-29T08:59:57;102332.44;;;11.94;94.15
49065;BME280;34877;27.062;-82.386;2023-01-29T09:10:02;102322.53;;;11.90;94.22
49065;BME280;34877;27.062;-82.386;2023-01-29T09:20:08;102332.48;;;11.65;94.35
49065;BME280;34877;27.062;-82.386;2023-01-29T09:30:12;102338.81;;;12.00;94.71
49065;BME280;34877;27.062;-82.386;2023-01-29T09:40:23;102352.90;;;11.97;95.03
49065;BME280;34877;27.062;-82.386;2023-01-29T09:50:30;102347.67;;;11.94;95.20
49065;BME280;34877;27.062;-82.386;2023-01-29T10:00:39;102356.35;;;11.46;95.33
49065;BME280;34877;27.062;-82.386;2023-01-29T10:10:49;102366.01;;;12.11;95.21
49065;BME280;34877;27.062;-82.386;2023-01-29T10:20:59;102372.31;;;11.63;95.21
49065;BME280;34877;27.062;-82.386;2023-01-29T10:31:12;102362.96;;;11.88;94.77
49065;BME280;34877;27.062;-82.386;2023-01-29T10:41:38;102369.74;;;11.75;95.24
49065;BME280;34877;27.062;-82.386;2023-01-29T10:51:58;102382.76;;;11.33;95.21
49065;BME280;34877;27.062;-82.386;2023-01-29T11:02:14;102395.72;;;11.80;95.17
49065;BME280;34877;27.062;-82.386;2023-01-29T11:12:19;102422.32;;;11.22;94.67
49065;BME280;34877;27.062;-82.386;2023-01-29T11:22:28;102429.41;;;11.84;94.60
49065;BME280;34877;27.062;-82.386;2023-01-29T11:32:34;102423.52;;;11.55;94.89
49065;BME280;34877;27.062;-82.386;2023-01-29T11:42:37;102428.62;;;11.57;94.51
49065;BME280;34877;27.062;-82.386;2023-01-29T11:52:42;102428.26;;;11.79;94.40
49065;BME280;34877;27.062;-82.386;2023-01-29T12:02:49;102429.79;;;11.54;94.43
49065;BME280;34877;27.062;-82.386;2023-01-29T12:13:04;102431.23;;;11.89;94.76
49065;BME280;34877;27.062;-82.386;2023-01-29T12:23:19;102443.87;;;11.49;94.57
49065;BME280;34877;27.062;-82.386;2023-01-29T12:33:35;102441.62;;;11.84;95.02
49065;BME280;34877;27.062;-82.386;2023-01-29T12:43:45;102450.31;;;11.84;94.89
49065;BME280;34877;27.062;-82.386;2023-01-29T12:53:55;102461.21;;;11.04;95.62
49065;BME280;34877;27.062;-82.386;2023-01-29T13:04:05;102447.46;;;11.82;94.85
49065;BME280;34877;27.062;-82.386;2023-01-29T13:14:18;102454.56;;;11.53;95.23
49065;BME280;34877;27.062;-82.386;2023-01-29T13:24:24;102451.82;;;11.10;95.16
49065;BME280;34877;27.062;-82.386;2023-01-29T13:34:33;102461.66;;;11.56;94.59
49065;BME280;34877;27.062;-82.386;2023-01-29T13:44:39;102470.71;;;11.49;94.90
49065;BME280;34877;27.062;-82.386;2023-01-29T13:54:50;102475.30;;;11.84;95.01
49065;BME280;34877;27.062;-82.386;2023-01-29T14:06:03;102487.09;;;11.53;94.57
49065;BME280;34877;27.062;-82.386;2023-01-29T14:16:32;102498.12;;;11.63;94.05
49065;BME280;34877;27.062;-82.386;2023-01-29T14:26:43;102497.33;;;11.40;93.77
49065;BME280;34877;27.062;-82.386;2023-01-29T14:36:49;102502.58;;;11.88;93.68
49065;BME280;34877;27.062;-82.386;2023-01-29T14:46:52;102518.55;;;11.49;93.67
49065;BME280;34877;27.062;-82.386;2023-01-29T14:56:58;102541.87;;;11.81;93.40
49065;BME280;34877;27.062;-82.386;2023-01-29T15:07:16;102546.13;;;11.93;93.14
49065;BME280;34877;27.062;-82.386;2023-01-29T15:17:26;102540.04;;;11.80;93.05
49065;BME280;34877;27.062;-82.386;2023-01-29T15:27:34;102525.36;;;11.90;92.79
49065;BME280;34877;27.062;-82.386;2023-01-29T15:37:38;102512.28;;;12.16;92.93
49065;BME280;34877;27.062;-82.386;2023-01-29T15:47:43;102501.55;;;12.05;92.69
49065;BME280;34877;27.062;-82.386;2023-01-29T15:57:47;102486.20;;;11.94;92.61
49065;BME280;34877;27.062;-82.386;2023-01-29T16:07:55;102482.65;;;12.26;92.59
49065;BME280;34877;27.062;-82.386;2023-01-29T16:18:18;102464.24;;;12.37;92.53
49065;BME280;34877;27.062;-82.386;2023-01-29T16:28:23;102452.50;;;12.47;92.66
49065;BME280;34877;27.062;-82.386;2023-01-29T16:38:29;102432.93;;;12.33;92.78
49065;BME280;34877;27.062;-82.386;2023-01-29T16:48:39;102411.96;;;12.88;92.89
49065;BME280;34877;27.062;-82.386;2023-01-29T16:58:48;102390.64;;;12.74;93.21
49065;BME280;34877;27.062;-82.386;2023-01-29T17:08:55;102371.69;;;12.31;94.28
49065;BME280;34877;27.062;-82.386;2023-01-29T17:19:03;102355.72;;;11.91;93.02
49065;BME280;34877;27.062;-82.386;2023-01-29T17:29:14;102334.27;;;12.80;92.63
49065;BME280;34877;27.062;-82.386;2023-01-29T17:39:22;102313.87;;;12.92;92.98
49065;BME280;34877;27.062;-82.386;2023-01-29T17:49:28;102306.60;;;13.32;92.81
49065;BME280;34877;27.062;-82.386;2023-01-29T17:59:35;102272.47;;;13.28;93.17
49065;BME280;34877;27.062;-82.386;2023-01-29T18:09:37;102244.53;;;13.48;93.36
49065;BME280;34877;27.062;-82.386;2023-01-29T18:19:43;102223.25;;;13.10;94.65
49065;BME280;34877;27.062;-82.386;2023-01-29T18:29:47;102207.84;;;13.20;94.54
49065;BME280;34877;27.062;-82.386;2023-01-29T18:39:51;102184.40;;;13.85;93.78
49065;BME280;34877;27.062;-82.386;2023-01-29T18:49:57;102168.33;;;14.30;93.07
49065;BME280;34877;27.062;-82.386;2023-01-29T19:00:01;102150.80;;;13.73;93.66
49065;BME280;34877;27.062;-82.386;2023-01-29T19:10:08;102143.47;;;14.32;92.83
49065;BME280;34877;27.062;-82.386;2023-01-29T19:20:13;102118.72;;;14.46;93.50
49065;BME280;34877;27.062;-82.386;2023-01-29T19:30:17;102110.32;;;14.42;96.36
49065;BME280;34877;27.062;-82.386;2023-01-29T19:40:24;102090.31;;;14.58;93.34
49065;BME280;34877;27.062;-82.386;2023-01-29T19:50:30;102092.08;;;14.92;94.40
49065;BME280;34877;27.062;-82.386;2023-01-29T20:00:37;102098.74;;;15.11;93.86
49065;BME280;34877;27.062;-82.386;2023-01-29T20:10:44;102089.85;;;14.92;94.42
49065;BME280;34877;27.062;-82.386;2023-01-29T20:20:50;102082.50;;;15.25;95.48
49065;BME280;34877;27.062;-82.386;2023-01-29T20:30:59;102075.11;;;14.89;94.82
49065;BME280;34877;27.062;-82.386;2023-01-29T20:41:04;102075.59;;;14.88;95.61
49065;BME280;34877;27.062;-82.386;2023-01-29T20:51:08;102075.39;;;15.40;94.29
49065;BME280;34877;27.062;-82.386;2023-01-29T21:01:15;102081.29;;;15.79;93.80
49065;BME280;34877;27.062;-82.386;2023-01-29T21:11:22;102062.24;;;15.69;93.56
49065;BME280;34877;27.062;-82.386;2023-01-29T21:21:28;102057.83;;;16.18;93.48
49065;BME280;34877;27.062;-82.386;2023-01-29T21:31:32;102047.97;;;15.51;94.23
49065;BME280;34877;27.062;-82.386;2023-01-29T21:41:37;102069.35;;;15.42;94.98
49065;BME280;34877;27.062;-82.386;2023-01-29T21:51:42;102067.00;;;16.11;94.84
49065;BME280;34877;27.062;-82.386;2023-01-29T22:01:47;102086.40;;;16.13;95.30
49065;BME280;34877;27.062;-82.386;2023-01-29T22:11:52;102105.76;;;15.55;96.40
49065;BME280;34877;27.062;-82.386;2023-01-29T22:21:57;102126.65;;;16.17;96.95
49065;BME280;34877;27.062;-82.386;2023-01-29T22:32:02;102139.03;;;15.74;97.07
49065;BME280;34877;27.062;-82.386;2023-01-29T22:42:06;102159.73;;;16.11;98.39
49065;BME280;34877;27.062;-82.386;2023-01-29T22:52:14;102162.20;;;15.62;99.89
49065;BME280;34877;27.062;-82.386;2023-01-29T23:02:19;102166.62;;;15.89;100.00
49065;BME280;34877;27.062;-82.386;2023-01-29T23:12:23;102166.60;;;15.81;100.00
49065;BME280;34877;27.062;-82.386;2023-01-29T23:22:28;102180.17;;;15.35;100.00
49065;BME280;34877;27.062;-82.386;2023-01-29T23:32:33;102190.67;;;15.64;100.00
49065;BME280;34877;27.062;-82.386;2023-01-29T23:42:37;102194.63;;;15.09;100.00
49065;BME280;34877;27.062;-82.386;2023-01-29T23:52:43;102184.64;;;15.14;100.00
